sensor_id;sensor_type;location;lat;lon;timestamp;pressure;altitude;pressure_sealevel;temperature;humidity
5126;BME280;63008;53.112;8.896;2023-03-26T00:01:30;100341.28;;;8.07;97.93
5126;BME280;63008;53.112;8.896;2023-03-26T00:03:34;100327.63;;;8.07;98.20
5126;BME280;63008;53.112;8.896;2023-03-26T00:05:35;100334.56;;;8.04;98.96
5126;BME280;63008;53.112;8.896;2023-03-26T00:07:36;100337.13;;;8.01;99.02
5126;BME280;63008;53.112;8.896;2023-03-26T00:09:41;100348.25;;;7.96;98.96
5126;BME280;63008;53.112;8.896;2023-03-26T00:11:48;100341.19;;;7.95;99.48
5126;BME280;63008;53.112;8.896;2023-03-26T00:13:50;100332.16;;;7.94;99.78
5126;BME280;63008;53.112;8.896;2023-03-26T00:15:53;100336.84;;;7.94;99.75
5126;BME280;63008;53.112;8.896;2023-03-26T00:17:54;100337.47;;;7.91;99.60
5126;BME280;63008;53.112;8.896;2023-03-26T00:19:55;100350.34;;;7.90;100.00
5126;BME280;63008;53.112;8.896;2023-03-26T00:21:56;100350.50;;;7.94;100.00
5126;BME280;63008;53.112;8.896;2023-03-26T00:24:03;100354.22;;;7.89;100.00
5126;BME280;63008;53.112;8.896;2023-03-26T00:26:11;100358.19;;;7.92;100.00
5126;BME280;63008;53.112;8.896;2023-03-26T00:28:12;100359.97;;;7.96;100.00
5126;BME280;63008;53.112;8.896;2023-03-26T00:30:13;100359.50;;;7.94;100.00
5126;BME280;63008;53.112;8.896;2023-03-26T00:32:15;100362.56;;;7.93;99.38
5126;BME280;63008;53.112;8.896;2023-03-26T00:34:16;100363.19;;;7.90;99.55
5126;BME280;63008;53.112;8.896;2023-03-26T00:36:17;100372.69;;;7.84;99.54
5126;BME280;63008;53.112;8.896;2023-03-26T00:38:21;100371.75;;;7.80;99.34
5126;BME280;63008;53.112;8.896;2023-03-26T00:40:22;100368.38;;;7.74;99.67
5126;BME280;63008;53.112;8.896;2023-03-26T00:42:23;100374.97;;;7.73;100.00
5126;BME280;63008;53.112;8.896;2023-03-26T00:44:24;100374.94;;;7.82;99.88
5126;BME280;63008;53.112;8.896;2023-03-26T00:46:29;100378.47;;;7.74;99.60
5126;BME280;63008;53.112;8.896;2023-03-26T00:48:30;100377.38;;;7.75;98.54
5126;BME280;63008;53.112;8.896;2023-03-26T00:50:33;100382.03;;;7.74;97.24
5126;BME280;63008;53.112;8.896;2023-03-26T00:52:35;100374.16;;;7.73;97.92
5126;BME280;63008;53.112;8.896;2023-03-26T00:54:41;100382.53;;;7.68;97.67
5126;BME280;63008;53.112;8.896;2023-03-26T00:56:42;100383.47;;;7.63;98.30
5126;BME280;63008;53.112;8.896;2023-03-26T00:58:45;100381.88;;;7.71;98.61
5126;BME280;63008;53.112;8.896;2023-03-26T01:00:52;100379.97;;;7.71;99.12
5126;BME280;63008;53.112;8.896;2023-03-26T01:02:53;100371.28;;;7.69;99.44
5126;BME280;63008;53.112;8.896;2023-03-26T01:04:58;100377.22;;;7.71;99.83
5126;BME280;63008;53.112;8.896;2023-03-26T01:07:09;100387.50;;;7.74;99.29
5126;BME280;63008;53.112;8.896;2023-03-26T01:09:18;100381.88;;;7.71;97.59
5126;BME280;63008;53.112;8.896;2023-03-26T01:11:24;100386.38;;;7.75;97.41
5126;BME280;63008;53.112;8.896;2023-03-26T01:13:25;100388.47;;;7.70;98.20
5126;BME280;63008;53.112;8.896;2023-03-26T01:15:26;100389.28;;;7.70;98.52
5126;BME280;63008;53.112;8.896;2023-03-26T01:17:29;100379.50;;;7.61;99.44
5126;BME280;63008;53.112;8.896;2023-03-26T01:19:44;100384.31;;;7.64;98.75
5126;BME280;63008;53.112;8.896;2023-03-26T01:21:48;100383.34;;;7.68;98.42
5126;BME280;63008;53.112;8.896;2023-03-26T01:24:03;100390.72;;;7.68;97.98
5126;BME280;63008;53.112;8.896;2023-03-26T01:26:37;100388.81;;;7.60;98.73
5126;BME280;63008;53.112;8.896;2023-03-26T01:28:36;100392.31;;;7.60;98.31
5126;BME280;63008;53.112;8.896;2023-03-26T01:30:55;100400.03;;;7.58;98.85
5126;BME280;63008;53.112;8.896;2023-03-26T01:35:11;100385.91;;;7.48;99.05
5126;BME280;63008;53.112;8.896;2023-03-26T01:37:22;100391.38;;;7.48;99.66
5126;BME280;63008;53.112;8.896;2023-03-26T01:42:14;100389.59;;;7.52;98.83
5126;BME280;63008;53.112;8.896;2023-03-26T01:44:22;100389.59;;;7.52;98.49
5126;BME280;63008;53.112;8.896;2023-03-26T01:46:27;100388.34;;;7.58;98.23
5126;BME280;63008;53.112;8.896;2023-03-26T01:48:33;100387.50;;;7.57;98.26
5126;BME280;63008;53.112;8.896;2023-03-26T01:50:35;100387.81;;;7.56;98.26
5126;BME280;63008;53.112;8.896;2023-03-26T01:52:36;100384.94;;;7.61;98.41
5126;BME280;63008;53.112;8.896;2023-03-26T01:54:37;100390.25;;;7.66;97.54
5126;BME280;63008;53.112;8.896;2023-03-26T01:59:10;100389.28;;;7.62;97.86
5126;BME280;63008;53.112;8.896;2023-03-26T02:04:12;100395.06;;;7.60;98.53
5126;BME280;63008;53.112;8.896;2023-03-26T02:06:25;100384.63;;;7.54;98.95
5126;BME280;63008;53.112;8.896;2023-03-26T02:08:49;100387.34;;;7.54;99.51
5126;BME280;63008;53.112;8.896;2023-03-26T02:10:56;100386.41;;;7.50;99.22
5126;BME280;63008;53.112;8.896;2023-03-26T02:12:57;100386.41;;;7.50;99.70
5126;BME280;63008;53.112;8.896;2023-03-26T02:15:00;100392.81;;;7.54;99.77
5126;BME280;63008;53.112;8.896;2023-03-26T02:17:01;100383.00;;;7.53;99.25
5126;BME280;63008;53.112;8.896;2023-03-26T02:19:02;100382.88;;;7.58;98.36
5126;BME280;63008;53.112;8.896;2023-03-26T02:21:11;100387.34;;;7.62;97.60
5126;BME280;63008;53.112;8.896;2023-03-26T02:23:12;100384.47;;;7.59;98.18
5126;BME280;63008;53.112;8.896;2023-03-26T02:25:15;100375.94;;;7.60;96.88
5126;BME280;63008;53.112;8.896;2023-03-26T02:27:16;100380.94;;;7.58;95.06
5126;BME280;63008;53.112;8.896;2023-03-26T02:29:18;100372.75;;;7.58;95.04
5126;BME280;63008;53.112;8.896;2023-03-26T02:31:20;100378.69;;;7.60;94.53
5126;BME280;63008;53.112;8.896;2023-03-26T02:33:21;100373.22;;;7.60;94.61
5126;BME280;63008;53.112;8.896;2023-03-26T02:35:22;100374.66;;;7.66;93.66
5126;BME280;63008;53.112;8.896;2023-03-26T02:37:23;100377.88;;;7.68;92.78
5126;BME280;63008;53.112;8.896;2023-03-26T02:39:24;100369.03;;;7.63;92.01
5126;BME280;63008;53.112;8.896;2023-03-26T02:41:25;100365.66;;;7.66;91.85
5126;BME280;63008;53.112;8.896;2023-03-26T02:43:26;100370.81;;;7.76;90.01
5126;BME280;63008;53.112;8.896;2023-03-26T02:45:27;100374.78;;;7.78;89.33
5126;BME280;63008;53.112;8.896;2023-03-26T02:47:28;100372.25;;;7.73;89.30
5126;BME280;63008;53.112;8.896;2023-03-26T02:49:29;100369.50;;;7.73;89.13
5126;BME280;63008;53.112;8.896;2023-03-26T02:51:30;100367.75;;;7.69;91.11
5126;BME280;63008;53.112;8.896;2023-03-26T02:53:34;100367.75;;;7.69;89.04
5126;BME280;63008;53.112;8.896;2023-03-26T02:55:37;100362.44;;;7.72;87.98
5126;BME280;63008;53.112;8.896;2023-03-26T02:57:39;100356.31;;;7.75;86.91
5126;BME280;63008;53.112;8.896;2023-03-26T02:59:41;100358.09;;;7.71;87.06
5126;BME280;63008;53.112;8.896;2023-03-26T03:01:42;100361.31;;;7.73;86.69
5126;BME280;63008;53.112;8.896;2023-03-26T03:03:46;100366.78;;;7.73;87.03
5126;BME280;63008;53.112;8.896;2023-03-26T03:05:47;100363.88;;;7.70;87.74
5126;BME280;63008;53.112;8.896;2023-03-26T03:07:48;100362.91;;;7.74;87.68
5126;BME280;63008;53.112;8.896;2023-03-26T03:09:49;100369.03;;;7.71;88.11
5126;BME280;63008;53.112;8.896;2023-03-26T03:11:50;100357.94;;;7.76;87.80
5126;BME280;63008;53.112;8.896;2023-03-26T03:13:52;100360.84;;;7.71;87.79
5126;BME280;63008;53.112;8.896;2023-03-26T03:15:54;100361.16;;;7.70;88.14
5126;BME280;63008;53.112;8.896;2023-03-26T03:17:55;100350.25;;;7.61;87.47
5126;BME280;63008;53.112;8.896;2023-03-26T03:19:56;100353.13;;;7.65;87.41
5126;BME280;63008;53.112;8.896;2023-03-26T03:21:57;100353.94;;;7.65;86.17
5126;BME280;63008;53.112;8.896;2023-03-26T03:23:58;100361.50;;;7.60;87.69
5126;BME280;63008;53.112;8.896;2023-03-26T03:25:59;100356.66;;;7.65;87.30
5126;BME280;63008;53.112;8.896;2023-03-26T03:28:02;100358.13;;;7.54;88.06
5126;BME280;63008;53.112;8.896;2023-03-26T03:30:04;100366.97;;;7.60;87.17
5126;BME280;63008;53.112;8.896;2023-03-26T03:32:05;100364.56;;;7.58;86.50
5126;BME280;63008;53.112;8.896;2023-03-26T03:34:06;100368.09;;;7.59;85.56
5126;BME280;63008;53.112;8.896;2023-03-26T03:36:09;100365.84;;;7.61;86.55
5126;BME280;63008;53.112;8.896;2023-03-26T03:38:10;100363.91;;;7.61;86.13
5126;BME280;63008;53.112;8.896;2023-03-26T03:40:12;100363.75;;;7.58;87.10
5126;BME280;63008;53.112;8.896;2023-03-26T03:42:13;100361.03;;;7.58;87.04
5126;BME280;63008;53.112;8.896;2023-03-26T03:44:14;100363.75;;;7.58;87.44
5126;BME280;63008;53.112;8.896;2023-03-26T03:46:15;100363.75;;;7.58;87.66
5126;BME280;63008;53.112;8.896;2023-03-26T03:48:16;100363.75;;;7.58;87.58
5126;BME280;63008;53.112;8.896;2023-03-26T03:50:18;100367.75;;;7.60;87.71
5126;BME280;63008;53.112;8.896;2023-03-26T03:52:19;100369.34;;;7.61;87.78
5126;BME280;63008;53.112;8.896;2023-03-26T03:54:20;100359.91;;;7.59;88.72
5126;BME280;63008;53.112;8.896;2023-03-26T03:56:21;100363.09;;;7.61;88.57
5126;BME280;63008;53.112;8.896;2023-03-26T03:58:24;100368.56;;;7.61;89.00
5126;BME280;63008;53.112;8.896;2023-03-26T04:00:27;100361.03;;;7.66;89.00
5126;BME280;63008;53.112;8.896;2023-03-26T04:02:30;100360.69;;;7.68;89.55
5126;BME280;63008;53.112;8.896;2023-03-26T04:04:34;100360.84;;;7.71;89.22
5126;BME280;63008;53.112;8.896;2023-03-26T04:06:35;100371.94;;;7.75;89.15
5126;BME280;63008;53.112;8.896;2023-03-26T04:08:36;100369.03;;;7.71;89.48
5126;BME280;63008;53.112;8.896;2023-03-26T04:10:37;100365.81;;;7.69;89.51
5126;BME280;63008;53.112;8.896;2023-03-26T04:12:38;100358.28;;;7.66;90.81
5126;BME280;63008;53.112;8.896;2023-03-26T04:14:39;100358.28;;;7.66;91.10
5126;BME280;63008;53.112;8.896;2023-03-26T04:16:40;100353.13;;;7.65;91.29
5126;BME280;63008;53.112;8.896;2023-03-26T04:18:41;100353.78;;;7.62;91.21
5126;BME280;63008;53.112;8.896;2023-03-26T04:20:43;100356.63;;;7.74;88.81
5126;BME280;63008;53.112;8.896;2023-03-26T04:22:47;100357.47;;;7.74;87.59
5126;BME280;63008;53.112;8.896;2023-03-26T04:24:48;100351.84;;;7.71;87.81
5126;BME280;63008;53.112;8.896;2023-03-26T04:26:49;100359.06;;;7.67;87.58
5126;BME280;63008;53.112;8.896;2023-03-26T04:28:52;100357.00;;;7.64;87.89
5126;BME280;63008;53.112;8.896;2023-03-26T04:30:55;100360.84;;;7.63;88.18
5126;BME280;63008;53.112;8.896;2023-03-26T04:33:01;100352.50;;;7.59;88.30
5126;BME280;63008;53.112;8.896;2023-03-26T04:35:06;100352.34;;;7.56;88.59
5126;BME280;63008;53.112;8.896;2023-03-26T04:37:26;100355.25;;;7.51;89.19
5126;BME280;63008;53.112;8.896;2023-03-26T04:39:27;100351.06;;;7.53;90.42
5126;BME280;63008;53.112;8.896;2023-03-26T04:41:28;100349.31;;;7.49;90.85
5126;BME280;63008;53.112;8.896;2023-03-26T04:43:29;100349.63;;;7.47;90.63
5126;BME280;63008;53.112;8.896;2023-03-26T04:45:30;100358.94;;;7.46;90.92
5126;BME280;63008;53.112;8.896;2023-03-26T04:47:32;100352.03;;;7.40;89.54
5126;BME280;63008;53.112;8.896;2023-03-26T04:49:36;100347.41;;;7.41;89.89
5126;BME280;63008;53.112;8.896;2023-03-26T04:51:38;100347.41;;;7.41;89.51
5126;BME280;63008;53.112;8.896;2023-03-26T04:53:41;100349.00;;;7.42;89.88
5126;BME280;63008;53.112;8.896;2023-03-26T04:55:51;100344.16;;;7.39;89.49
5126;BME280;63008;53.112;8.896;2023-03-26T04:57:56;100356.56;;;7.28;89.50
5126;BME280;63008;53.112;8.896;2023-03-26T04:59:59;100357.03;;;7.21;88.95
5126;BME280;63008;53.112;8.896;2023-03-26T05:02:02;100360.41;;;7.18;88.44
5126;BME280;63008;53.112;8.896;2023-03-26T05:04:03;100354.78;;;7.23;87.63
5126;BME280;63008;53.112;8.896;2023-03-26T05:06:04;100359.28;;;7.19;88.43
5126;BME280;63008;53.112;8.896;2023-03-26T05:08:05;100354.78;;;7.15;87.64
5126;BME280;63008;53.112;8.896;2023-03-26T05:10:07;100363.31;;;7.14;87.45
5126;BME280;63008;53.112;8.896;2023-03-26T05:12:08;100354.47;;;7.08;87.76
5126;BME280;63008;53.112;8.896;2023-03-26T05:14:09;100354.47;;;7.08;85.14
5126;BME280;63008;53.112;8.896;2023-03-26T05:16:10;100361.19;;;7.02;84.80
5126;BME280;63008;53.112;8.896;2023-03-26T05:18:11;100356.72;;;6.98;86.21
5126;BME280;63008;53.112;8.896;2023-03-26T05:20:18;100362.94;;;6.98;84.13
5126;BME280;63008;53.112;8.896;2023-03-26T05:22:20;100368.75;;;6.97;83.77
5126;BME280;63008;53.112;8.896;2023-03-26T05:24:21;100366.16;;;6.92;83.33
5126;BME280;63008;53.112;8.896;2023-03-26T05:26:24;100364.53;;;6.91;83.16
5126;BME280;63008;53.112;8.896;2023-03-26T05:28:25;100362.63;;;6.91;82.18
5126;BME280;63008;53.112;8.896;2023-03-26T05:30:27;100369.22;;;6.90;80.48
5126;BME280;63008;53.112;8.896;2023-03-26T05:32:30;100357.19;;;6.91;81.57
5126;BME280;63008;53.112;8.896;2023-03-26T05:34:30;100370.34;;;6.98;77.92
5126;BME280;63008;53.112;8.896;2023-03-26T05:36:31;100372.75;;;6.99;78.09
5126;BME280;63008;53.112;8.896;2023-03-26T05:38:33;100359.44;;;6.98;78.40
5126;BME280;63008;53.112;8.896;2023-03-26T05:40:34;100368.56;;;7.02;77.71
5126;BME280;63008;53.112;8.896;2023-03-26T05:42:34;100360.06;;;7.03;77.28
5126;BME280;63008;53.112;8.896;2023-03-26T05:44:35;100364.72;;;7.03;76.69
5126;BME280;63008;53.112;8.896;2023-03-26T05:46:36;100369.84;;;7.04;77.35
5126;BME280;63008;53.112;8.896;2023-03-26T05:48:38;100368.41;;;7.07;77.37
5126;BME280;63008;53.112;8.896;2023-03-26T05:50:39;100372.09;;;7.02;77.82
5126;BME280;63008;53.112;8.896;2023-03-26T05:52:40;100373.88;;;7.07;76.44
5126;BME280;63008;53.112;8.896;2023-03-26T05:54:41;100366.50;;;7.07;76.63
5126;BME280;63008;53.112;8.896;2023-03-26T05:56:42;100370.34;;;7.06;76.98
5126;BME280;63008;53.112;8.896;2023-03-26T05:58:43;100368.09;;;7.08;76.19
5126;BME280;63008;53.112;8.896;2023-03-26T06:00:44;100371.16;;;7.15;76.49
5126;BME280;63008;53.112;8.896;2023-03-26T06:02:48;100377.41;;;7.16;76.05
5126;BME280;63008;53.112;8.896;2023-03-26T06:04:50;100365.38;;;7.17;76.47
5126;BME280;63008;53.112;8.896;2023-03-26T06:06:51;100373.56;;;7.17;75.39
5126;BME280;63008;53.112;8.896;2023-03-26T06:08:52;100366.66;;;7.19;75.32
5126;BME280;63008;53.112;8.896;2023-03-26T06:11:01;100367.28;;;7.24;75.48
5126;BME280;63008;53.112;8.896;2023-03-26T06:13:03;100359.59;;;7.26;75.69
5126;BME280;63008;53.112;8.896;2023-03-26T06:15:04;100362.00;;;7.28;75.62
5126;BME280;63008;53.112;8.896;2023-03-26T06:17:05;100359.28;;;7.28;76.90
5126;BME280;63008;53.112;8.896;2023-03-26T06:19:06;100358.31;;;7.32;76.38
5126;BME280;63008;53.112;8.896;2023-03-26T06:21:07;100351.25;;;7.31;77.32
5126;BME280;63008;53.112;8.896;2023-03-26T06:23:09;100354.94;;;7.35;76.55
5126;BME280;63008;53.112;8.896;2023-03-26T06:25:10;100352.69;;;7.29;77.16
5126;BME280;63008;53.112;8.896;2023-03-26T06:27:11;100350.91;;;7.33;77.74
5126;BME280;63008;53.112;8.896;2023-03-26T06:29:15;100351.09;;;7.36;77.88
5126;BME280;63008;53.112;8.896;2023-03-26T06:31:15;100351.56;;;7.38;77.32
5126;BME280;63008;53.112;8.896;2023-03-26T06:33:18;100354.59;;;7.37;78.10
5126;BME280;63008;53.112;8.896;2023-03-26T06:35:19;100360.72;;;7.34;78.38
5126;BME280;63008;53.112;8.896;2023-03-26T06:37:20;100355.72;;;7.36;77.38
5126;BME280;63008;53.112;8.896;2023-03-26T06:39:21;100358.31;;;7.41;77.65
5126;BME280;63008;53.112;8.896;2023-03-26T06:41:22;100361.53;;;7.43;77.57
5126;BME280;63008;53.112;8.896;2023-03-26T06:43:23;100363.13;;;7.35;79.76
5126;BME280;63008;53.112;8.896;2023-03-26T06:45:24;100366.66;;;7.44;78.90
5126;BME280;63008;53.112;8.896;2023-03-26T06:47:25;100362.31;;;7.43;78.44
5126;BME280;63008;53.112;8.896;2023-03-26T06:49:26;100365.50;;;7.45;78.03
5126;BME280;63008;53.112;8.896;2023-03-26T06:51:27;100370.19;;;7.53;77.62
5126;BME280;63008;53.112;8.896;2023-03-26T06:53:28;100368.56;;;7.61;76.63
5126;BME280;63008;53.112;8.896;2023-03-26T06:55:29;100376.78;;;7.52;77.89
5126;BME280;63008;53.112;8.896;2023-03-26T06:57:31;100373.69;;;7.54;77.89
5126;BME280;63008;53.112;8.896;2023-03-26T06:59:32;100380.16;;;7.49;77.94
5126;BME280;63008;53.112;8.896;2023-03-26T07:01:33;100377.09;;;7.51;78.47
5126;BME280;63008;53.112;8.896;2023-03-26T07:03:34;100377.56;;;7.53;77.65
5126;BME280;63008;53.112;8.896;2023-03-26T07:05:35;100375.81;;;7.48;78.41
5126;BME280;63008;53.112;8.896;2023-03-26T07:07:36;100376.31;;;7.42;78.51
5126;BME280;63008;53.112;8.896;2023-03-26T07:09:38;100369.38;;;7.44;79.11
5126;BME280;63008;53.112;8.896;2023-03-26T07:11:39;100373.22;;;7.43;78.95
5126;BME280;63008;53.112;8.896;2023-03-26T07:13:40;100377.41;;;7.49;78.53
5126;BME280;63008;53.112;8.896;2023-03-26T07:15:41;100369.38;;;7.53;78.89
5126;BME280;63008;53.112;8.896;2023-03-26T07:17:42;100370.97;;;7.54;79.72
5126;BME280;63008;53.112;8.896;2023-03-26T07:19:43;100363.91;;;7.53;80.57
5126;BME280;63008;53.112;8.896;2023-03-26T07:21:44;100370.50;;;7.52;80.52
5126;BME280;63008;53.112;8.896;2023-03-26T07:23:47;100363.25;;;7.56;80.62
5126;BME280;63008;53.112;8.896;2023-03-26T07:25:48;100362.94;;;7.57;80.76
5126;BME280;63008;53.112;8.896;2023-03-26T07:30:26;100361.66;;;7.55;79.40
5126;BME280;63008;53.112;8.896;2023-03-26T07:32:46;100354.75;;;7.49;81.17
5126;BME280;63008;53.112;8.896;2023-03-26T07:35:00;100356.06;;;7.43;79.98
5126;BME280;63008;53.112;8.896;2023-03-26T07:42:16;100359.59;;;7.18;75.59
5126;BME280;63008;53.112;8.896;2023-03-26T07:44:42;100357.84;;;7.14;75.25
5126;BME280;63008;53.112;8.896;2023-03-26T07:46:47;100351.56;;;7.21;77.91
5126;BME280;63008;53.112;8.896;2023-03-26T07:48:48;100349.78;;;7.25;76.84
5126;BME280;63008;53.112;8.896;2023-03-26T07:50:52;100355.75;;;7.27;76.40
5126;BME280;63008;53.112;8.896;2023-03-26T07:52:54;100354.00;;;7.31;75.50
5126;BME280;63008;53.112;8.896;2023-03-26T07:54:55;100354.47;;;7.33;77.07
5126;BME280;63008;53.112;8.896;2023-03-26T07:57:05;100356.38;;;7.33;76.36
5126;BME280;63008;53.112;8.896;2023-03-26T08:06:38;100361.66;;;7.55;76.49
5126;BME280;63008;53.112;8.896;2023-03-26T08:08:52;100356.97;;;7.72;76.08
5126;BME280;63008;53.112;8.896;2023-03-26T08:13:38;100361.13;;;7.78;75.82
5126;BME280;63008;53.112;8.896;2023-03-26T08:15:47;100358.13;;;7.63;74.23
5126;BME280;63008;53.112;8.896;2023-03-26T08:18:00;100359.94;;;7.25;73.05
5126;BME280;63008;53.112;8.896;2023-03-26T08:22:30;100357.84;;;7.05;71.86
5126;BME280;63008;53.112;8.896;2023-03-26T08:24:39;100357.50;;;7.07;73.28
5126;BME280;63008;53.112;8.896;2023-03-26T08:27:06;100362.97;;;7.07;73.36
5126;BME280;63008;53.112;8.896;2023-03-26T08:31:37;100352.69;;;7.04;71.33
5126;BME280;63008;53.112;8.896;2023-03-26T08:33:38;100357.50;;;7.07;71.52
5126;BME280;63008;53.112;8.896;2023-03-26T08:35:40;100359.28;;;7.03;71.23
5126;BME280;63008;53.112;8.896;2023-03-26T08:37:41;100362.63;;;7.00;70.72
5126;BME280;63008;53.112;8.896;2023-03-26T08:39:45;100360.88;;;7.04;70.42
5126;BME280;63008;53.112;8.896;2023-03-26T08:50:07;100369.25;;;7.24;70.14
5126;BME280;63008;53.112;8.896;2023-03-26T08:54:35;100375.81;;;7.31;68.74
5126;BME280;63008;53.112;8.896;2023-03-26T09:11:49;100376.91;;;7.39;69.10
5126;BME280;63008;53.112;8.896;2023-03-26T09:16:09;100378.19;;;7.67;69.34
5126;BME280;63008;53.112;8.896;2023-03-26T09:21:11;100375.44;;;7.75;67.90
5126;BME280;63008;53.112;8.896;2023-03-26T09:26:17;100379.44;;;7.95;68.93
5126;BME280;63008;53.112;8.896;2023-03-26T09:31:21;100381.75;;;7.67;66.27
5126;BME280;63008;53.112;8.896;2023-03-26T09:36:31;100383.00;;;7.70;65.81
5126;BME280;63008;53.112;8.896;2023-03-26T09:38:42;100381.53;;;7.89;67.76
5126;BME280;63008;53.112;8.896;2023-03-26T09:45:49;100383.44;;;7.89;67.16
5126;BME280;63008;53.112;8.896;2023-03-26T10:07:37;100393.94;;;8.70;64.29
5126;BME280;63008;53.112;8.896;2023-03-26T10:09:51;100395.41;;;8.68;63.58
5126;BME280;63008;53.112;8.896;2023-03-26T10:14:20;100391.94;;;8.50;62.64
5126;BME280;63008;53.112;8.896;2023-03-26T10:19:01;100391.41;;;8.28;63.36
5126;BME280;63008;53.112;8.896;2023-03-26T10:21:25;100389.88;;;7.93;62.38
5126;BME280;63008;53.112;8.896;2023-03-26T10:24:03;100388.09;;;7.97;64.13
5126;BME280;63008;53.112;8.896;2023-03-26T10:26:20;100385.34;;;8.05;62.12
5126;BME280;63008;53.112;8.896;2023-03-26T10:28:53;100391.22;;;8.33;62.63
5126;BME280;63008;53.112;8.896;2023-03-26T10:35:50;100374.66;;;8.67;59.66
5126;BME280;63008;53.112;8.896;2023-03-26T10:38:06;100377.88;;;8.89;59.50
5126;BME280;63008;53.112;8.896;2023-03-26T10:41:07;100373.78;;;9.03;60.49
5126;BME280;63008;53.112;8.896;2023-03-26T10:45:49;100380.66;;;9.09;58.93
5126;BME280;63008;53.112;8.896;2023-03-26T10:50:52;100378.28;;;8.50;60.82
5126;BME280;63008;53.112;8.896;2023-03-26T10:55:38;100376.13;;;8.64;61.25
5126;BME280;63008;53.112;8.896;2023-03-26T10:59:45;100377.66;;;9.02;60.11
5126;BME280;63008;53.112;8.896;2023-03-26T11:02:18;100374.91;;;9.02;60.14
5126;BME280;63008;53.112;8.896;2023-03-26T11:09:15;100385.50;;;8.55;62.57
5126;BME280;63008;53.112;8.896;2023-03-26T11:11:37;100386.63;;;8.54;60.13
5126;BME280;63008;53.112;8.896;2023-03-26T11:15:52;100387.88;;;8.65;60.26
5126;BME280;63008;53.112;8.896;2023-03-26T11:18:15;100387.84;;;8.36;60.89
5126;BME280;63008;53.112;8.896;2023-03-26T11:20:40;100394.59;;;8.67;61.93
5126;BME280;63008;53.112;8.896;2023-03-26T11:23:05;100388.69;;;8.57;61.67
5126;BME280;63008;53.112;8.896;2023-03-26T11:27:45;100382.56;;;8.89;61.46
5126;BME280;63008;53.112;8.896;2023-03-26T11:29:53;100388.56;;;8.82;59.13
5126;BME280;63008;53.112;8.896;2023-03-26T11:32:06;100383.75;;;8.79;59.71
5126;BME280;63008;53.112;8.896;2023-03-26T11:34:12;100393.38;;;8.85;57.47
5126;BME280;63008;53.112;8.896;2023-03-26T11:36:18;100386.81;;;8.78;57.63
5126;BME280;63008;53.112;8.896;2023-03-26T11:38:31;100389.22;;;9.08;56.63
5126;BME280;63008;53.112;8.896;2023-03-26T11:40:41;100393.19;;;9.72;58.68
5126;BME280;63008;53.112;8.896;2023-03-26T11:42:43;100381.31;;;9.47;55.48
5126;BME280;63008;53.112;8.896;2023-03-26T11:44:54;100389.97;;;10.35;55.39
5126;BME280;63008;53.112;8.896;2023-03-26T11:47:00;100384.94;;;10.96;51.88
5126;BME280;63008;53.112;8.896;2023-03-26T11:49:07;100393.47;;;11.98;51.42
5126;BME280;63008;53.112;8.896;2023-03-26T11:51:17;100381.75;;;12.01;49.10
5126;BME280;63008;53.112;8.896;2023-03-26T11:53:24;100386.53;;;10.97;52.36
5126;BME280;63008;53.112;8.896;2023-03-26T11:55:30;100375.88;;;10.12;52.97
5126;BME280;63008;53.112;8.896;2023-03-26T11:57:33;100380.13;;;10.22;52.66
5126;BME280;63008;53.112;8.896;2023-03-26T11:59:51;100377.13;;;9.82;52.96
5126;BME280;63008;53.112;8.896;2023-03-26T12:04:14;100374.44;;;9.94;54.40
5126;BME280;63008;53.112;8.896;2023-03-26T12:06:25;100371.56;;;10.47;53.00
5126;BME280;63008;53.112;8.896;2023-03-26T12:08:33;100369.50;;;10.92;51.98
5126;BME280;63008;53.112;8.896;2023-03-26T12:10:39;100369.84;;;10.79;54.14
5126;BME280;63008;53.112;8.896;2023-03-26T12:12:45;100363.34;;;10.71;53.80
5126;BME280;63008;53.112;8.896;2023-03-26T12:14:47;100370.47;;;11.23;52.58
5126;BME280;63008;53.112;8.896;2023-03-26T12:17:11;100370.66;;;10.31;53.54
5126;BME280;63008;53.112;8.896;2023-03-26T12:19:18;100369.28;;;10.25;56.06
5126;BME280;63008;53.112;8.896;2023-03-26T12:21:20;100364.44;;;9.45;55.95
5126;BME280;63008;53.112;8.896;2023-03-26T12:23:54;100374.44;;;9.21;54.65
5126;BME280;63008;53.112;8.896;2023-03-26T12:26:18;100371.84;;;9.04;55.45
5126;BME280;63008;53.112;8.896;2023-03-26T12:28:20;100366.91;;;9.38;54.46
5126;BME280;63008;53.112;8.896;2023-03-26T12:30:22;100376.38;;;10.50;55.53
5126;BME280;63008;53.112;8.896;2023-03-26T12:32:31;100374.66;;;10.70;51.94
5126;BME280;63008;53.112;8.896;2023-03-26T12:34:34;100366.22;;;11.26;50.77
5126;BME280;63008;53.112;8.896;2023-03-26T12:36:37;100369.72;;;10.99;51.08
5126;BME280;63008;53.112;8.896;2023-03-26T12:38:38;100358.69;;;12.05;51.07
5126;BME280;63008;53.112;8.896;2023-03-26T12:40:42;100370.59;;;12.25;48.42
5126;BME280;63008;53.112;8.896;2023-03-26T12:42:51;100360.59;;;12.32;50.01
5126;BME280;63008;53.112;8.896;2023-03-26T12:44:54;100360.75;;;12.24;49.38
5126;BME280;63008;53.112;8.896;2023-03-26T12:47:09;100364.94;;;12.64;48.22
5126;BME280;63008;53.112;8.896;2023-03-26T12:49:12;100360.28;;;11.63;48.97
5126;BME280;63008;53.112;8.896;2023-03-26T12:51:24;100370.72;;;11.85;49.95
5126;BME280;63008;53.112;8.896;2023-03-26T12:53:50;100375.69;;;10.77;51.33
5126;BME280;63008;53.112;8.896;2023-03-26T12:58:30;100382.66;;;10.87;50.23
5126;BME280;63008;53.112;8.896;2023-03-26T13:03:30;100361.25;;;11.98;49.08
5126;BME280;63008;53.112;8.896;2023-03-26T13:10:06;100370.09;;;11.92;47.47
5126;BME280;63008;53.112;8.896;2023-03-26T13:13:20;100365.19;;;12.44;48.97
5126;BME280;63008;53.112;8.896;2023-03-26T13:15:16;100357.78;;;12.78;47.22
5126;BME280;63008;53.112;8.896;2023-03-26T13:19:41;100362.63;;;12.35;47.06
5126;BME280;63008;53.112;8.896;2023-03-26T13:23:54;100357.28;;;14.44;43.56
5126;BME280;63008;53.112;8.896;2023-03-26T13:28:55;100359.28;;;12.91;47.67
5126;BME280;63008;53.112;8.896;2023-03-26T13:31:30;100360.66;;;11.50;48.54
5126;BME280;63008;53.112;8.896;2023-03-26T13:40:21;100359.59;;;9.95;52.14
5126;BME280;63008;53.112;8.896;2023-03-26T13:42:33;100355.25;;;9.94;53.18
5126;BME280;63008;53.112;8.896;2023-03-26T13:47:14;100362.13;;;11.87;47.68
5126;BME280;63008;53.112;8.896;2023-03-26T13:49:33;100368.78;;;11.46;47.52